Eiwa Maru No.2 — JG5333 — position and weather

sailwx.info

Track history (hours):
 
Tides and Currents Weather Stations Pressure Air Temp Water Temp Dewpoint Dewpoint Depression Visibility Wind Speed Wind Dir Waves Ship Positions

Eiwa Maru No.2

Last reported at 2018-Feb-23 13:56 UTC. Time now 2018-Feb-23 16:01 UTC.
Position N 34°30' E 137°06'.

Length 65 m; draft 2 m.

Type: Tanker. MMSI: 431400355.

Date/timePositionNaut miles runAvg speedWind from/ knotsBaromVisibWave heightAir tempDewpointWater temp
2018-Feb-23 13:56N 34°30' E 137°06'511.4
2018-Feb-23 13:30N 34°32' E 137°12'711.0
2018-Feb-23 12:54N 34°34' E 137°19'3210.6
2018-Feb-23 09:53N 34°36' E 137°58'12 9.4
2018-Feb-23 08:35N 34°34' E 138°13'1 9.0
2018-Feb-23 08:27N 34°34' E 138°14'610.4
2018-Feb-23 07:53N 34°37' E 138°21'510.3
2018-Feb-23 07:26N 34°38' E 138°26'410.2
2018-Feb-23 07:00N 34°39' E 138°31'5 9.6
2018-Feb-23 06:26N 34°38' E 138°38'4 9.6
2018-Feb-23 06:00N 34°37' E 138°43'510.4
2018-Feb-23 05:30N 34°35' E 138°49'510.6
2018-Feb-23 05:00N 34°36' E 138°55'610.2
2018-Feb-23 04:27N 34°39' E 139°00'812.2
2018-Feb-23 03:48N 34°46' E 139°06'311.9
2018-Feb-23 03:31N 34°49' E 139°09'611.5
2018-Feb-23 03:00N 34°53' E 139°13'611.6
2018-Feb-23 02:30N 34°56' E 139°19'611.7
2018-Feb-23 02:00N 34°59' E 139°25'611.9
2018-Feb-23 01:30N 35°02' E 139°32'612.2
2018-Feb-23 01:00N 35°05' E 139°38'612.1
2018-Feb-23 00:30N 35°09' E 139°44'612.0
2018-Feb-23 00:00N 35°15' E 139°46'612.0
2018-Feb-22 23:30N 35°20' E 139°43'611.8
2018-Feb-22 23:01N 35°26' E 139°43'4 8.3
2018-Feb-22 22:31N 35°29' E 139°41'0 0.1
2018-Feb-22 22:00N 35°29' E 139°41'0 0.0
2018-Feb-22 21:30N 35°29' E 139°41'0 0.0
2018-Feb-22 21:00N 35°29' E 139°41'0 0.0
2018-Feb-22 20:30N 35°29' E 139°41'0 0.0
2018-Feb-22 20:00N 35°29' E 139°41'0 0.0
2018-Feb-22 19:30N 35°29' E 139°41'0 0.0
2018-Feb-22 19:00N 35°29' E 139°41'0 0.0
2018-Feb-22 18:30N 35°29' E 139°41'0 0.0
2018-Feb-22 18:00N 35°29' E 139°41'0 0.0
2018-Feb-22 17:30N 35°29' E 139°41'0 0.0
2018-Feb-22 17:00N 35°29' E 139°41'0 0.0
2018-Feb-22 16:30N 35°29' E 139°41'0 0.0
2018-Feb-22 16:00N 35°29' E 139°41'0 0.0
2018-Feb-22 15:30N 35°29' E 139°41'0 0.0
2018-Feb-22 15:00N 35°29' E 139°41'0 0.0
2018-Feb-22 14:27N 35°29' E 139°41'0 0.0
2018-Feb-22 14:00N 35°29' E 139°41'0 0.0
2018-Feb-22 13:30N 35°29' E 139°41'0 0.0
2018-Feb-22 13:00N 35°29' E 139°41'0 0.0
2018-Feb-22 12:30N 35°29' E 139°41'0 0.0
2018-Feb-22 12:00N 35°29' E 139°41'0 0.0
2018-Feb-22 11:30N 35°29' E 139°41'0 0.0
2018-Feb-22 11:00N 35°29' E 139°41'0 0.0
2018-Feb-22 10:30N 35°29' E 139°41'0 0.0
2018-Feb-22 10:00N 35°29' E 139°41'0 0.0
2018-Feb-22 09:30N 35°29' E 139°41'0 0.0
2018-Feb-22 09:00N 35°29' E 139°41'0 0.0
2018-Feb-22 08:30N 35°29' E 139°41'0 0.0
2018-Feb-22 08:00N 35°29' E 139°41'0 0.0
2018-Feb-22 07:27N 35°29' E 139°41'0 0.0
2018-Feb-22 07:00N 35°29' E 139°41'0 0.0
2018-Feb-22 06:30N 35°29' E 139°41'0 0.0
2018-Feb-22 06:00N 35°29' E 139°41'0 0.0
2018-Feb-22 05:30N 35°29' E 139°41'0 0.0
2018-Feb-22 05:00N 35°29' E 139°41'0 0.0
2018-Feb-22 04:30N 35°29' E 139°41'0 0.0
2018-Feb-22 04:00N 35°29' E 139°41'0 0.0
2018-Feb-22 03:30N 35°29' E 139°41'0 0.0
2018-Feb-22 03:00N 35°29' E 139°41'0 0.0
2018-Feb-22 02:30N 35°29' E 139°41'0 0.0
2018-Feb-22 02:00N 35°29' E 139°41'0 0.0
2018-Feb-22 01:30N 35°29' E 139°41'0 0.0
2018-Feb-22 01:01N 35°29' E 139°41'0 0.0
2018-Feb-22 00:30N 35°29' E 139°41'0 0.0
2018-Feb-22 00:01N 35°29' E 139°41'1 1.0
2018-Feb-21 23:30N 35°29' E 139°41'3 5.6
2018-Feb-21 23:00N 35°28' E 139°44'0 0.7
2018-Feb-21 22:29N 35°28' E 139°44'0 0.0
2018-Feb-21 21:59N 35°28' E 139°44'0 0.0
2018-Feb-21 21:29N 35°28' E 139°44'0 0.0
2018-Feb-21 20:53N 35°28' E 139°44'0 0.0
2018-Feb-21 20:29N 35°28' E 139°44'0 0.0
2018-Feb-21 19:59N 35°28' E 139°44'0 0.0
2018-Feb-21 19:29N 35°28' E 139°44'0 0.0
2018-Feb-21 18:59N 35°28' E 139°44'0 0.0
2018-Feb-21 18:29N 35°28' E 139°44'0 0.0
2018-Feb-21 17:59N 35°28' E 139°44'0 0.0
2018-Feb-21 17:29N 35°28' E 139°44'0 0.0
2018-Feb-21 16:59N 35°28' E 139°44'0 0.0
2018-Feb-21 16:29N 35°28' E 139°44'0 0.0
2018-Feb-21 15:56N 35°28' E 139°44'0 0.0
2018-Feb-21 15:29N 35°28' E 139°44'0 0.0
2018-Feb-21 14:56N 35°28' E 139°44'0 0.0
2018-Feb-21 14:29N 35°28' E 139°44'0 0.0
2018-Feb-21 13:59N 35°28' E 139°44'0 0.0
2018-Feb-21 13:29N 35°28' E 139°44'0 0.0
2018-Feb-21 12:59N 35°28' E 139°44'0 0.0
2018-Feb-21 12:29N 35°28' E 139°44'0 0.0
2018-Feb-21 11:59N 35°28' E 139°44'0 0.0
2018-Feb-21 11:29N 35°28' E 139°44'0 0.0
2018-Feb-21 10:59N 35°28' E 139°44'0 0.0
2018-Feb-21 10:29N 35°28' E 139°44'0 0.0
2018-Feb-21 09:59N 35°28' E 139°44'0 0.0
2018-Feb-21 09:29N 35°28' E 139°44'0 0.0
2018-Feb-21 08:59N 35°28' E 139°44'0 0.0
2018-Feb-21 08:31N 35°28' E 139°44'0 0.0
2018-Feb-21 08:00N 35°28' E 139°44'0 0.0
2018-Feb-21 07:30N 35°28' E 139°44'0 0.0
2018-Feb-21 07:01N 35°28' E 139°44'0 0.0
2018-Feb-21 06:30N 35°28' E 139°44'0 0.0
2018-Feb-21 06:00N 35°28' E 139°44'0 0.0
2018-Feb-21 05:30N 35°28' E 139°44'0 0.0
2018-Feb-21 05:00N 35°28' E 139°44'0 0.0
2018-Feb-21 04:31N 35°28' E 139°44'0 0.0
2018-Feb-21 04:00N 35°28' E 139°44'0 0.0
2018-Feb-21 03:30N 35°28' E 139°44'0 0.0
2018-Feb-21 03:00N 35°28' E 139°44'0 0.0
2018-Feb-21 02:30N 35°28' E 139°44'1 1.2
2018-Feb-21 02:00N 35°27' E 139°44'5 9.5
2018-Feb-21 01:30N 35°23' E 139°45'5 9.6
2018-Feb-21 01:00N 35°18' E 139°45'510.3
2018-Feb-21 00:31N 35°13' E 139°47'510.9
2018-Feb-21 00:00N 35°08' E 139°45'610.3
2018-Feb-20 23:25N 35°03' E 139°41'4 9.9
2018-Feb-20 23:00N 35°01' E 139°37'10 9.6
2018-Feb-20 21:58N 34°55' E 139°27'6 9.1
2018-Feb-20 21:21N 34°52' E 139°21'4 9.2
2018-Feb-20 20:55N 34°49' E 139°17'4 9.7
2018-Feb-20 20:30N 34°46' E 139°14'7 9.1
2018-Feb-20 19:40N 34°42' E 139°06'2 9.6
2018-Feb-20 19:27N 34°41' E 139°04'510.5
2018-Feb-20 18:58N 34°38' E 138°59'511.0
2018-Feb-20 18:29N 34°35' E 138°54'611.3
2018-Feb-20 17:59N 34°35' E 138°47'710.1
2018-Feb-20 17:20N 34°34' E 138°39'511.2
2018-Feb-20 16:53N 34°34' E 138°33'711.8
2018-Feb-20 16:18N 34°34' E 138°24'412.1
2018-Feb-20 15:58N 34°34' E 138°20'812.3
2018-Feb-20 15:18N 34°34' E 138°10'412.4
2018-Feb-20 14:58N 34°34' E 138°05'6810.3
2018-Feb-20 08:24N 34°09' E 136°48'89 9.0
2018-Feb-19 22:27N 33°50' E 135°03'510.9
2018-Feb-19 22:00N 33°54' E 135°00'611.5
2018-Feb-19 21:30N 33°59' E 134°59'611.7
2018-Feb-19 21:00N 34°05' E 134°59'611.9
2018-Feb-19 20:30N 34°11' E 134°59'713.2
2018-Feb-19 20:00N 34°18' E 134°59'612.3
2018-Feb-19 19:30N 34°24' E 135°00'612.3
2018-Feb-19 19:00N 34°30' E 135°02'612.3
2018-Feb-19 18:31N 34°36' E 135°03'612.5
2018-Feb-19 18:00N 34°35' E 134°55'612.1
2018-Feb-19 17:30N 34°33' E 134°48'611.3
2018-Feb-19 17:00N 34°31' E 134°42'611.3
2018-Feb-19 16:30N 34°29' E 134°36'611.2
2018-Feb-19 16:00N 34°26' E 134°29'611.2
2018-Feb-19 15:28N 34°24' E 134°22'810.8
2018-Feb-19 14:42N 34°24' E 134°12'77 9.2
2018-Feb-19 06:16N 34°03' E 132°43'310.3
2018-Feb-19 06:00N 34°02' E 132°40'5 9.7
2018-Feb-19 05:30N 33°59' E 132°35'6 9.7
2018-Feb-19 04:52N 33°55' E 132°29'910.3
2018-Feb-19 04:00N 33°50' E 132°20'611.3
2018-Feb-19 03:29N 33°50' E 132°13'611.2
2018-Feb-19 02:56N 33°47' E 132°07'611.3
2018-Feb-19 02:23N 33°45' E 131°59'511.3
2018-Feb-19 01:58N 33°46' E 131°54'511.3
2018-Feb-19 01:29N 33°47' E 131°47'511.0
2018-Feb-19 01:00N 33°47' E 131°41'510.7
2018-Feb-19 00:30N 33°48' E 131°35'510.6
2018-Feb-19 00:00N 33°49' E 131°29'510.5
2018-Feb-18 23:30N 33°51' E 131°23'510.4
2018-Feb-18 23:00N 33°52' E 131°16'510.1
2018-Feb-18 22:30N 33°53' E 131°11'510.7
2018-Feb-18 22:00N 33°56' E 131°05'611.1
2018-Feb-18 21:30N 33°58' E 130°59'611.5
2018-Feb-18 21:00N 33°55' E 130°54'510.7
2018-Feb-18 20:30N 33°58' E 130°48'611.2
2018-Feb-18 20:00N 33°58' E 130°42'611.0
2018-Feb-18 19:30N 33°57' E 130°35'611.3
2018-Feb-18 19:00N 33°56' E 130°28'510.6
2018-Feb-18 18:31N 33°51' E 130°25'611.7
2018-Feb-18 18:00N 33°47' E 130°20'611.5
2018-Feb-18 17:30N 33°44' E 130°14'611.8
2018-Feb-18 16:58N 33°39' E 130°09'611.9
2018-Feb-18 16:30N 33°37' E 130°03'711.8
2018-Feb-18 15:56N 33°34' E 129°55'0 0.0
2018-Feb-17 05:30N 33°34' E 129°55'911.3
2018-Feb-17 04:40N 33°38' E 130°05'211.0
2018-Feb-17 04:29N 33°39' E 130°07'510.6
2018-Feb-17 04:00N 33°42' E 130°12'510.4
2018-Feb-17 03:30N 33°45' E 130°17'510.7
2018-Feb-17 03:00N 33°49' E 130°22'510.8
2018-Feb-17 02:30N 33°52' E 130°27'510.2
2018-Feb-17 02:00N 33°57' E 130°29'5 9.0
2018-Feb-17 01:30N 33°58' E 130°34'5 9.9
2018-Feb-17 01:00N 33°58' E 130°40'5 9.9
2018-Feb-17 00:30N 33°58' E 130°46'510.9
2018-Feb-17 00:00N 33°56' E 130°52'4 8.8
2018-Feb-16 23:30N 33°58' E 130°57'510.7
2018-Feb-16 23:00N 33°57' E 131°04'612.2
2018-Feb-16 22:30N 33°53' E 131°10'612.3
2018-Feb-16 22:00N 33°51' E 131°17'612.2
2018-Feb-16 21:30N 33°50' E 131°24'612.3
2018-Feb-16 21:00N 33°49' E 131°31'612.1
2018-Feb-16 20:30N 33°48' E 131°38'611.7
2018-Feb-16 20:00N 33°47' E 131°45'611.0
2018-Feb-16 19:30N 33°46' E 131°52'610.7
2018-Feb-16 18:54N 33°46' E 131°60'611.9
2018-Feb-16 18:26N 33°47' E 132°06'612.7
2018-Feb-16 17:58N 33°50' E 132°12'512.0
2018-Feb-16 17:30N 33°50' E 132°19'812.3
2018-Feb-16 16:52N 33°53' E 132°28'512.9
2018-Feb-16 16:30N 33°57' E 132°32'612.8
2018-Feb-16 16:00N 34°01' E 132°37'7910.7
2018-Feb-16 08:37N 34°26' E 134°08'312.1
2018-Feb-16 08:20N 34°25' E 134°12'411.8
2018-Feb-16 07:58N 34°24' E 134°17'511.8
2018-Feb-16 07:31N 34°22' E 134°23'612.1
2018-Feb-16 07:00N 34°19' E 134°29'612.1
2018-Feb-16 06:30N 34°16' E 134°36'510.7
2018-Feb-16 06:00N 34°12' E 134°41'511.0
2018-Feb-16 05:30N 34°08' E 134°45'611.5
2018-Feb-16 05:00N 34°04' E 134°50'611.7
2018-Feb-16 04:30N 33°60' E 134°54'611.7
2018-Feb-16 04:01N 33°55' E 134°59'611.2
2018-Feb-16 03:28N 33°51' E 135°04'112 9.5
2018-Feb-15 15:36N 34°32' E 137°10'111.9
2018-Feb-15 15:30N 34°32' E 137°12'611.6
2018-Feb-15 14:59N 34°34' E 137°18'2911.0
2018-Feb-15 12:22N 34°37' E 137°53'410.9
2018-Feb-15 12:00N 34°36' E 137°58'610.8
2018-Feb-15 11:29N 34°35' E 138°05'6 9.8
2018-Feb-15 10:52N 34°34' E 138°12'4 9.6
2018-Feb-15 10:28N 34°35' E 138°17'510.6
2018-Feb-15 10:00N 34°37' E 138°22'510.1
2018-Feb-15 09:30N 34°39' E 138°28'5 9.6
2018-Feb-15 08:56N 34°38' E 138°34'4 9.1
2018-Feb-15 08:30N 34°37' E 138°39'4 7.8
2018-Feb-15 08:00N 34°37' E 138°44'4 7.6
2018-Feb-15 07:30N 34°35' E 138°48'4 7.3
2018-Feb-15 06:57N 34°35' E 138°53'4 8.1
2018-Feb-15 06:30N 34°36' E 138°57'4 8.4
2018-Feb-15 06:00N 34°39' E 139°01'4 8.6
2018-Feb-15 05:30N 34°43' E 139°03'5 9.1
2018-Feb-15 05:00N 34°47' E 139°06'8 9.5
2018-Feb-15 04:09N 34°54' E 139°11'1 9.4
2018-Feb-15 04:00N 34°55' E 139°13'510.3
2018-Feb-15 03:28N 34°57' E 139°19'511.1
2018-Feb-15 03:00N 34°59' E 139°24'611.5
2018-Feb-15 02:30N 35°02' E 139°30'611.6
2018-Feb-15 02:00N 35°05' E 139°37'611.9
2018-Feb-15 01:30N 35°08' E 139°43'611.6
2018-Feb-15 01:00N 35°13' E 139°46'611.9
2018-Feb-15 00:30N 35°19' E 139°43'5 9.5
2018-Feb-15 00:01N 35°23' E 139°44'1 1.3
2018-Feb-14 23:28N 35°23' E 139°44'0 0.1
2018-Feb-14 22:58N 35°23' E 139°45'0 0.0
2018-Feb-14 22:28N 35°23' E 139°45'0 0.1
2018-Feb-14 21:58N 35°23' E 139°45'0 0.0
2018-Feb-14 21:28N 35°23' E 139°45'0 0.0
2018-Feb-14 20:58N 35°23' E 139°45'0 0.0
2018-Feb-14 20:28N 35°23' E 139°45'0 0.0
2018-Feb-14 19:58N 35°23' E 139°45'0 0.0
2018-Feb-14 19:28N 35°23' E 139°45'0 0.0
2018-Feb-14 18:58N 35°23' E 139°45'0 0.0
2018-Feb-14 18:28N 35°23' E 139°45'0 0.0
2018-Feb-14 17:58N 35°23' E 139°45'0 0.0
2018-Feb-14 17:28N 35°23' E 139°45'0 0.0
2018-Feb-14 16:58N 35°23' E 139°45'0 0.0
2018-Feb-14 16:28N 35°23' E 139°45'0 0.0
2018-Feb-14 15:58N 35°23' E 139°45'0 0.0
2018-Feb-14 15:28N 35°23' E 139°45'0 0.0
2018-Feb-14 14:58N 35°23' E 139°45'0 0.0
2018-Feb-14 14:28N 35°23' E 139°45'0 0.0
2018-Feb-14 13:58N 35°23' E 139°45'0 0.0
2018-Feb-14 13:28N 35°23' E 139°45'0 0.0
2018-Feb-14 12:58N 35°23' E 139°45'0 0.0
2018-Feb-14 12:28N 35°23' E 139°45'0 0.0
2018-Feb-14 11:58N 35°23' E 139°45'0 0.0
2018-Feb-14 11:28N 35°23' E 139°45'0 0.0
2018-Feb-14 10:58N 35°23' E 139°45'0 0.0
2018-Feb-14 10:28N 35°23' E 139°45'0 0.0
2018-Feb-14 09:58N 35°23' E 139°45'0 0.0
2018-Feb-14 09:28N 35°23' E 139°45'0 0.0
2018-Feb-14 08:58N 35°23' E 139°45'0 0.0
2018-Feb-14 08:28N 35°23' E 139°45'0 0.0
2018-Feb-14 07:58N 35°23' E 139°45'0 0.0
2018-Feb-14 07:28N 35°23' E 139°45'0 0.0
2018-Feb-14 06:58N 35°23' E 139°45'0 0.0
2018-Feb-14 06:28N 35°23' E 139°45'0 0.0
2018-Feb-14 05:58N 35°23' E 139°45'1 1.9
2018-Feb-14 05:30N 35°24' E 139°45'5 9.8
2018-Feb-14 05:00N 35°28' E 139°42'1 2.5
2018-Feb-14 04:31N 35°29' E 139°41'0 0.0
2018-Feb-14 04:00N 35°29' E 139°41'0 0.0
2018-Feb-14 03:30N 35°29' E 139°41'0 0.0
2018-Feb-14 03:00N 35°29' E 139°41'0 0.0
2018-Feb-14 02:30N 35°29' E 139°41'0 0.0
2018-Feb-14 02:00N 35°29' E 139°41'0 0.0
2018-Feb-14 01:30N 35°29' E 139°41'0 0.0
2018-Feb-14 01:00N 35°29' E 139°41'0 0.0
2018-Feb-14 00:30N 35°29' E 139°41'0 0.0
2018-Feb-14 00:00N 35°29' E 139°41'0 0.0
2018-Feb-13 23:30N 35°29' E 139°41'0 0.0
2018-Feb-13 23:00N 35°29' E 139°41'0 0.0
2018-Feb-13 22:30N 35°29' E 139°41'0 0.0
2018-Feb-13 22:00N 35°29' E 139°41'0 0.0
2018-Feb-13 21:30N 35°29' E 139°41'0 0.0
2018-Feb-13 21:00N 35°29' E 139°41'0 0.0
2018-Feb-13 20:27N 35°29' E 139°41'0 0.0
2018-Feb-13 20:00N 35°29' E 139°41'0 0.0
2018-Feb-13 19:30N 35°29' E 139°41'0 0.0
2018-Feb-13 19:00N 35°29' E 139°41'0 0.0
2018-Feb-13 18:30N 35°29' E 139°41'0 0.0
2018-Feb-13 18:00N 35°29' E 139°41'0 0.0
2018-Feb-13 17:30N 35°29' E 139°41'0 0.0
2018-Feb-13 17:00N 35°29' E 139°41'0 0.0
2018-Feb-13 16:30N 35°29' E 139°41'0 0.0
2018-Feb-13 16:00N 35°29' E 139°41'0 0.0
2018-Feb-13 15:30N 35°29' E 139°41'0 0.0
2018-Feb-13 15:00N 35°29' E 139°41'0 0.0
2018-Feb-13 14:30N 35°29' E 139°41'0 0.0
2018-Feb-13 14:00N 35°29' E 139°41'  
Track history (hours):
 
Tides and Currents Weather Stations Pressure Air Temp Water Temp Dewpoint Dewpoint Depression Visibility Wind Speed Wind Dir Waves Ship Positions

Eiwa Maru No.2

Last reported at 2018-Feb-23 13:56 UTC. Time now 2018-Feb-23 16:01 UTC.
Position N 34°30' E 137°06'.

Length 65 m; draft 2 m.

Type: Tanker. MMSI: 431400355.

Date/timePositionNaut miles runAvg speedWind from/ knotsBaromVisibWave heightAir tempDewpointWater temp
2018-Feb-23 13:56N 34°30' E 137°06'511.4
2018-Feb-23 13:30N 34°32' E 137°12'711.0
2018-Feb-23 12:54N 34°34' E 137°19'3210.6
2018-Feb-23 09:53N 34°36' E 137°58'12 9.4
2018-Feb-23 08:35N 34°34' E 138°13'1 9.0
2018-Feb-23 08:27N 34°34' E 138°14'610.4
2018-Feb-23 07:53N 34°37' E 138°21'510.3
2018-Feb-23 07:26N 34°38' E 138°26'410.2
2018-Feb-23 07:00N 34°39' E 138°31'5 9.6
2018-Feb-23 06:26N 34°38' E 138°38'4 9.6
2018-Feb-23 06:00N 34°37' E 138°43'510.4
2018-Feb-23 05:30N 34°35' E 138°49'510.6
2018-Feb-23 05:00N 34°36' E 138°55'610.2
2018-Feb-23 04:27N 34°39' E 139°00'812.2
2018-Feb-23 03:48N 34°46' E 139°06'311.9
2018-Feb-23 03:31N 34°49' E 139°09'611.5
2018-Feb-23 03:00N 34°53' E 139°13'611.6
2018-Feb-23 02:30N 34°56' E 139°19'611.7
2018-Feb-23 02:00N 34°59' E 139°25'611.9
2018-Feb-23 01:30N 35°02' E 139°32'612.2
2018-Feb-23 01:00N 35°05' E 139°38'612.1
2018-Feb-23 00:30N 35°09' E 139°44'612.0
2018-Feb-23 00:00N 35°15' E 139°46'612.0
2018-Feb-22 23:30N 35°20' E 139°43'611.8
2018-Feb-22 23:01N 35°26' E 139°43'4 8.3
2018-Feb-22 22:31N 35°29' E 139°41'0 0.1
2018-Feb-22 22:00N 35°29' E 139°41'0 0.0
2018-Feb-22 21:30N 35°29' E 139°41'0 0.0
2018-Feb-22 21:00N 35°29' E 139°41'0 0.0
2018-Feb-22 20:30N 35°29' E 139°41'0 0.0
2018-Feb-22 20:00N 35°29' E 139°41'0 0.0
2018-Feb-22 19:30N 35°29' E 139°41'0 0.0
2018-Feb-22 19:00N 35°29' E 139°41'0 0.0
2018-Feb-22 18:30N 35°29' E 139°41'0 0.0
2018-Feb-22 18:00N 35°29' E 139°41'0 0.0
2018-Feb-22 17:30N 35°29' E 139°41'0 0.0
2018-Feb-22 17:00N 35°29' E 139°41'0 0.0
2018-Feb-22 16:30N 35°29' E 139°41'0 0.0
2018-Feb-22 16:00N 35°29' E 139°41'0 0.0
2018-Feb-22 15:30N 35°29' E 139°41'0 0.0
2018-Feb-22 15:00N 35°29' E 139°41'0 0.0
2018-Feb-22 14:27N 35°29' E 139°41'0 0.0
2018-Feb-22 14:00N 35°29' E 139°41'0 0.0
2018-Feb-22 13:30N 35°29' E 139°41'0 0.0
2018-Feb-22 13:00N 35°29' E 139°41'0 0.0
2018-Feb-22 12:30N 35°29' E 139°41'0 0.0
2018-Feb-22 12:00N 35°29' E 139°41'0 0.0
2018-Feb-22 11:30N 35°29' E 139°41'0 0.0
2018-Feb-22 11:00N 35°29' E 139°41'0 0.0
2018-Feb-22 10:30N 35°29' E 139°41'0 0.0
2018-Feb-22 10:00N 35°29' E 139°41'0 0.0
2018-Feb-22 09:30N 35°29' E 139°41'0 0.0
2018-Feb-22 09:00N 35°29' E 139°41'0 0.0
2018-Feb-22 08:30N 35°29' E 139°41'0 0.0
2018-Feb-22 08:00N 35°29' E 139°41'0 0.0
2018-Feb-22 07:27N 35°29' E 139°41'0 0.0
2018-Feb-22 07:00N 35°29' E 139°41'0 0.0
2018-Feb-22 06:30N 35°29' E 139°41'0 0.0
2018-Feb-22 06:00N 35°29' E 139°41'0 0.0
2018-Feb-22 05:30N 35°29' E 139°41'0 0.0
2018-Feb-22 05:00N 35°29' E 139°41'0 0.0
2018-Feb-22 04:30N 35°29' E 139°41'0 0.0
2018-Feb-22 04:00N 35°29' E 139°41'0 0.0
2018-Feb-22 03:30N 35°29' E 139°41'0 0.0
2018-Feb-22 03:00N 35°29' E 139°41'0 0.0
2018-Feb-22 02:30N 35°29' E 139°41'0 0.0
2018-Feb-22 02:00N 35°29' E 139°41'0 0.0
2018-Feb-22 01:30N 35°29' E 139°41'0 0.0
2018-Feb-22 01:01N 35°29' E 139°41'0 0.0
2018-Feb-22 00:30N 35°29' E 139°41'0 0.0
2018-Feb-22 00:01N 35°29' E 139°41'1 1.0
2018-Feb-21 23:30N 35°29' E 139°41'3 5.6
2018-Feb-21 23:00N 35°28' E 139°44'0 0.7
2018-Feb-21 22:29N 35°28' E 139°44'0 0.0
2018-Feb-21 21:59N 35°28' E 139°44'0 0.0
2018-Feb-21 21:29N 35°28' E 139°44'0 0.0
2018-Feb-21 20:53N 35°28' E 139°44'0 0.0
2018-Feb-21 20:29N 35°28' E 139°44'0 0.0
2018-Feb-21 19:59N 35°28' E 139°44'0 0.0
2018-Feb-21 19:29N 35°28' E 139°44'0 0.0
2018-Feb-21 18:59N 35°28' E 139°44'0 0.0
2018-Feb-21 18:29N 35°28' E 139°44'0 0.0
2018-Feb-21 17:59N 35°28' E 139°44'0 0.0
2018-Feb-21 17:29N 35°28' E 139°44'0 0.0
2018-Feb-21 16:59N 35°28' E 139°44'0 0.0
2018-Feb-21 16:29N 35°28' E 139°44'0 0.0
2018-Feb-21 15:56N 35°28' E 139°44'0 0.0
2018-Feb-21 15:29N 35°28' E 139°44'0 0.0
2018-Feb-21 14:56N 35°28' E 139°44'0 0.0
2018-Feb-21 14:29N 35°28' E 139°44'0 0.0
2018-Feb-21 13:59N 35°28' E 139°44'0 0.0
2018-Feb-21 13:29N 35°28' E 139°44'0 0.0
2018-Feb-21 12:59N 35°28' E 139°44'0 0.0
2018-Feb-21 12:29N 35°28' E 139°44'0 0.0
2018-Feb-21 11:59N 35°28' E 139°44'0 0.0
2018-Feb-21 11:29N 35°28' E 139°44'0 0.0
2018-Feb-21 10:59N 35°28' E 139°44'0 0.0
2018-Feb-21 10:29N 35°28' E 139°44'0 0.0
2018-Feb-21 09:59N 35°28' E 139°44'0 0.0
2018-Feb-21 09:29N 35°28' E 139°44'0 0.0
2018-Feb-21 08:59N 35°28' E 139°44'0 0.0
2018-Feb-21 08:31N 35°28' E 139°44'0 0.0
2018-Feb-21 08:00N 35°28' E 139°44'0 0.0
2018-Feb-21 07:30N 35°28' E 139°44'0 0.0
2018-Feb-21 07:01N 35°28' E 139°44'0 0.0
2018-Feb-21 06:30N 35°28' E 139°44'0 0.0
2018-Feb-21 06:00N 35°28' E 139°44'0 0.0
2018-Feb-21 05:30N 35°28' E 139°44'0 0.0
2018-Feb-21 05:00N 35°28' E 139°44'0 0.0
2018-Feb-21 04:31N 35°28' E 139°44'0 0.0
2018-Feb-21 04:00N 35°28' E 139°44'0 0.0
2018-Feb-21 03:30N 35°28' E 139°44'0 0.0
2018-Feb-21 03:00N 35°28' E 139°44'0 0.0
2018-Feb-21 02:30N 35°28' E 139°44'1 1.2
2018-Feb-21 02:00N 35°27' E 139°44'5 9.5
2018-Feb-21 01:30N 35°23' E 139°45'5 9.6
2018-Feb-21 01:00N 35°18' E 139°45'510.3
2018-Feb-21 00:31N 35°13' E 139°47'510.9
2018-Feb-21 00:00N 35°08' E 139°45'610.3
2018-Feb-20 23:25N 35°03' E 139°41'4 9.9
2018-Feb-20 23:00N 35°01' E 139°37'10 9.6
2018-Feb-20 21:58N 34°55' E 139°27'6 9.1
2018-Feb-20 21:21N 34°52' E 139°21'4 9.2
2018-Feb-20 20:55N 34°49' E 139°17'4 9.7
2018-Feb-20 20:30N 34°46' E 139°14'7 9.1
2018-Feb-20 19:40N 34°42' E 139°06'2 9.6
2018-Feb-20 19:27N 34°41' E 139°04'510.5
2018-Feb-20 18:58N 34°38' E 138°59'511.0
2018-Feb-20 18:29N 34°35' E 138°54'611.3
2018-Feb-20 17:59N 34°35' E 138°47'710.1
2018-Feb-20 17:20N 34°34' E 138°39'511.2
2018-Feb-20 16:53N 34°34' E 138°33'711.8
2018-Feb-20 16:18N 34°34' E 138°24'412.1
2018-Feb-20 15:58N 34°34' E 138°20'812.3
2018-Feb-20 15:18N 34°34' E 138°10'412.4
2018-Feb-20 14:58N 34°34' E 138°05'6810.3
2018-Feb-20 08:24N 34°09' E 136°48'89 9.0
2018-Feb-19 22:27N 33°50' E 135°03'510.9
2018-Feb-19 22:00N 33°54' E 135°00'611.5
2018-Feb-19 21:30N 33°59' E 134°59'611.7
2018-Feb-19 21:00N 34°05' E 134°59'611.9
2018-Feb-19 20:30N 34°11' E 134°59'713.2
2018-Feb-19 20:00N 34°18' E 134°59'612.3
2018-Feb-19 19:30N 34°24' E 135°00'612.3
2018-Feb-19 19:00N 34°30' E 135°02'612.3
2018-Feb-19 18:31N 34°36' E 135°03'612.5
2018-Feb-19 18:00N 34°35' E 134°55'612.1
2018-Feb-19 17:30N 34°33' E 134°48'611.3
2018-Feb-19 17:00N 34°31' E 134°42'611.3
2018-Feb-19 16:30N 34°29' E 134°36'611.2
2018-Feb-19 16:00N 34°26' E 134°29'611.2
2018-Feb-19 15:28N 34°24' E 134°22'810.8
2018-Feb-19 14:42N 34°24' E 134°12'77 9.2
2018-Feb-19 06:16N 34°03' E 132°43'310.3
2018-Feb-19 06:00N 34°02' E 132°40'5 9.7
2018-Feb-19 05:30N 33°59' E 132°35'6 9.7
2018-Feb-19 04:52N 33°55' E 132°29'910.3
2018-Feb-19 04:00N 33°50' E 132°20'611.3
2018-Feb-19 03:29N 33°50' E 132°13'611.2
2018-Feb-19 02:56N 33°47' E 132°07'611.3
2018-Feb-19 02:23N 33°45' E 131°59'511.3
2018-Feb-19 01:58N 33°46' E 131°54'511.3
2018-Feb-19 01:29N 33°47' E 131°47'511.0
2018-Feb-19 01:00N 33°47' E 131°41'510.7
2018-Feb-19 00:30N 33°48' E 131°35'510.6
2018-Feb-19 00:00N 33°49' E 131°29'510.5
2018-Feb-18 23:30N 33°51' E 131°23'510.4
2018-Feb-18 23:00N 33°52' E 131°16'510.1
2018-Feb-18 22:30N 33°53' E 131°11'510.7
2018-Feb-18 22:00N 33°56' E 131°05'611.1
2018-Feb-18 21:30N 33°58' E 130°59'611.5
2018-Feb-18 21:00N 33°55' E 130°54'510.7
2018-Feb-18 20:30N 33°58' E 130°48'611.2
2018-Feb-18 20:00N 33°58' E 130°42'611.0
2018-Feb-18 19:30N 33°57' E 130°35'611.3
2018-Feb-18 19:00N 33°56' E 130°28'510.6
2018-Feb-18 18:31N 33°51' E 130°25'611.7
2018-Feb-18 18:00N 33°47' E 130°20'611.5
2018-Feb-18 17:30N 33°44' E 130°14'611.8
2018-Feb-18 16:58N 33°39' E 130°09'611.9
2018-Feb-18 16:30N 33°37' E 130°03'711.8
2018-Feb-18 15:56N 33°34' E 129°55'0 0.0
2018-Feb-17 05:30N 33°34' E 129°55'911.3
2018-Feb-17 04:40N 33°38' E 130°05'211.0
2018-Feb-17 04:29N 33°39' E 130°07'510.6
2018-Feb-17 04:00N 33°42' E 130°12'510.4
2018-Feb-17 03:30N 33°45' E 130°17'510.7
2018-Feb-17 03:00N 33°49' E 130°22'510.8
2018-Feb-17 02:30N 33°52' E 130°27'510.2
2018-Feb-17 02:00N 33°57' E 130°29'5 9.0
2018-Feb-17 01:30N 33°58' E 130°34'5 9.9
2018-Feb-17 01:00N 33°58' E 130°40'5 9.9
2018-Feb-17 00:30N 33°58' E 130°46'510.9
2018-Feb-17 00:00N 33°56' E 130°52'4 8.8
2018-Feb-16 23:30N 33°58' E 130°57'510.7
2018-Feb-16 23:00N 33°57' E 131°04'612.2
2018-Feb-16 22:30N 33°53' E 131°10'612.3
2018-Feb-16 22:00N 33°51' E 131°17'612.2
2018-Feb-16 21:30N 33°50' E 131°24'612.3
2018-Feb-16 21:00N 33°49' E 131°31'612.1
2018-Feb-16 20:30N 33°48' E 131°38'611.7
2018-Feb-16 20:00N 33°47' E 131°45'611.0
2018-Feb-16 19:30N 33°46' E 131°52'610.7
2018-Feb-16 18:54N 33°46' E 131°60'611.9
2018-Feb-16 18:26N 33°47' E 132°06'612.7
2018-Feb-16 17:58N 33°50' E 132°12'512.0
2018-Feb-16 17:30N 33°50' E 132°19'812.3
2018-Feb-16 16:52N 33°53' E 132°28'512.9
2018-Feb-16 16:30N 33°57' E 132°32'612.8
2018-Feb-16 16:00N 34°01' E 132°37'7910.7
2018-Feb-16 08:37N 34°26' E 134°08'312.1
2018-Feb-16 08:20N 34°25' E 134°12'411.8
2018-Feb-16 07:58N 34°24' E 134°17'511.8
2018-Feb-16 07:31N 34°22' E 134°23'612.1
2018-Feb-16 07:00N 34°19' E 134°29'612.1
2018-Feb-16 06:30N 34°16' E 134°36'510.7
2018-Feb-16 06:00N 34°12' E 134°41'511.0
2018-Feb-16 05:30N 34°08' E 134°45'611.5
2018-Feb-16 05:00N 34°04' E 134°50'611.7
2018-Feb-16 04:30N 33°60' E 134°54'611.7
2018-Feb-16 04:01N 33°55' E 134°59'611.2
2018-Feb-16 03:28N 33°51' E 135°04'112 9.5
2018-Feb-15 15:36N 34°32' E 137°10'111.9
2018-Feb-15 15:30N 34°32' E 137°12'611.6
2018-Feb-15 14:59N 34°34' E 137°18'2911.0
2018-Feb-15 12:22N 34°37' E 137°53'410.9
2018-Feb-15 12:00N 34°36' E 137°58'610.8
2018-Feb-15 11:29N 34°35' E 138°05'6 9.8
2018-Feb-15 10:52N 34°34' E 138°12'4 9.6
2018-Feb-15 10:28N 34°35' E 138°17'510.6
2018-Feb-15 10:00N 34°37' E 138°22'510.1
2018-Feb-15 09:30N 34°39' E 138°28'5 9.6
2018-Feb-15 08:56N 34°38' E 138°34'4 9.1
2018-Feb-15 08:30N 34°37' E 138°39'4 7.8
2018-Feb-15 08:00N 34°37' E 138°44'4 7.6
2018-Feb-15 07:30N 34°35' E 138°48'4 7.3
2018-Feb-15 06:57N 34°35' E 138°53'4 8.1
2018-Feb-15 06:30N 34°36' E 138°57'4 8.4
2018-Feb-15 06:00N 34°39' E 139°01'4 8.6
2018-Feb-15 05:30N 34°43' E 139°03'5 9.1
2018-Feb-15 05:00N 34°47' E 139°06'8 9.5
2018-Feb-15 04:09N 34°54' E 139°11'1 9.4
2018-Feb-15 04:00N 34°55' E 139°13'510.3
2018-Feb-15 03:28N 34°57' E 139°19'511.1
2018-Feb-15 03:00N 34°59' E 139°24'611.5
2018-Feb-15 02:30N 35°02' E 139°30'611.6
2018-Feb-15 02:00N 35°05' E 139°37'611.9
2018-Feb-15 01:30N 35°08' E 139°43'611.6
2018-Feb-15 01:00N 35°13' E 139°46'611.9
2018-Feb-15 00:30N 35°19' E 139°43'5 9.5
2018-Feb-15 00:01N 35°23' E 139°44'1 1.3
2018-Feb-14 23:28N 35°23' E 139°44'0 0.1
2018-Feb-14 22:58N 35°23' E 139°45'0 0.0
2018-Feb-14 22:28N 35°23' E 139°45'0 0.1
2018-Feb-14 21:58N 35°23' E 139°45'0 0.0
2018-Feb-14 21:28N 35°23' E 139°45'0 0.0
2018-Feb-14 20:58N 35°23' E 139°45'0 0.0
2018-Feb-14 20:28N 35°23' E 139°45'0 0.0
2018-Feb-14 19:58N 35°23' E 139°45'0 0.0
2018-Feb-14 19:28N 35°23' E 139°45'0 0.0
2018-Feb-14 18:58N 35°23' E 139°45'0 0.0
2018-Feb-14 18:28N 35°23' E 139°45'0 0.0
2018-Feb-14 17:58N 35°23' E 139°45'0 0.0
2018-Feb-14 17:28N 35°23' E 139°45'0 0.0
2018-Feb-14 16:58N 35°23' E 139°45'0 0.0
2018-Feb-14 16:28N 35°23' E 139°45'0 0.0
2018-Feb-14 15:58N 35°23' E 139°45'0 0.0
2018-Feb-14 15:28N 35°23' E 139°45'0 0.0
2018-Feb-14 14:58N 35°23' E 139°45'0 0.0
2018-Feb-14 14:28N 35°23' E 139°45'0 0.0
2018-Feb-14 13:58N 35°23' E 139°45'0 0.0
2018-Feb-14 13:28N 35°23' E 139°45'0 0.0
2018-Feb-14 12:58N 35°23' E 139°45'0 0.0
2018-Feb-14 12:28N 35°23' E 139°45'0 0.0
2018-Feb-14 11:58N 35°23' E 139°45'0 0.0
2018-Feb-14 11:28N 35°23' E 139°45'0 0.0
2018-Feb-14 10:58N 35°23' E 139°45'0 0.0
2018-Feb-14 10:28N 35°23' E 139°45'0 0.0
2018-Feb-14 09:58N 35°23' E 139°45'0 0.0
2018-Feb-14 09:28N 35°23' E 139°45'0 0.0
2018-Feb-14 08:58N 35°23' E 139°45'0 0.0
2018-Feb-14 08:28N 35°23' E 139°45'0 0.0
2018-Feb-14 07:58N 35°23' E 139°45'0 0.0
2018-Feb-14 07:28N 35°23' E 139°45'0 0.0
2018-Feb-14 06:58N 35°23' E 139°45'0 0.0
2018-Feb-14 06:28N 35°23' E 139°45'0 0.0
2018-Feb-14 05:58N 35°23' E 139°45'1 1.9
2018-Feb-14 05:30N 35°24' E 139°45'5 9.8
2018-Feb-14 05:00N 35°28' E 139°42'1 2.5
2018-Feb-14 04:31N 35°29' E 139°41'0 0.0
2018-Feb-14 04:00N 35°29' E 139°41'0 0.0
2018-Feb-14 03:30N 35°29' E 139°41'0 0.0
2018-Feb-14 03:00N 35°29' E 139°41'0 0.0
2018-Feb-14 02:30N 35°29' E 139°41'0 0.0
2018-Feb-14 02:00N 35°29' E 139°41'0 0.0
2018-Feb-14 01:30N 35°29' E 139°41'0 0.0
2018-Feb-14 01:00N 35°29' E 139°41'0 0.0
2018-Feb-14 00:30N 35°29' E 139°41'0 0.0
2018-Feb-14 00:00N 35°29' E 139°41'0 0.0
2018-Feb-13 23:30N 35°29' E 139°41'0 0.0
2018-Feb-13 23:00N 35°29' E 139°41'0 0.0
2018-Feb-13 22:30N 35°29' E 139°41'0 0.0
2018-Feb-13 22:00N 35°29' E 139°41'0 0.0
2018-Feb-13 21:30N 35°29' E 139°41'0 0.0
2018-Feb-13 21:00N 35°29' E 139°41'0 0.0
2018-Feb-13 20:27N 35°29' E 139°41'0 0.0
2018-Feb-13 20:00N 35°29' E 139°41'0 0.0
2018-Feb-13 19:30N 35°29' E 139°41'0 0.0
2018-Feb-13 19:00N 35°29' E 139°41'0 0.0
2018-Feb-13 18:30N 35°29' E 139°41'0 0.0
2018-Feb-13 18:00N 35°29' E 139°41'0 0.0
2018-Feb-13 17:30N 35°29' E 139°41'0 0.0
2018-Feb-13 17:00N 35°29' E 139°41'0 0.0
2018-Feb-13 16:30N 35°29' E 139°41'0 0.0
2018-Feb-13 16:00N 35°29' E 139°41'0 0.0
2018-Feb-13 15:30N 35°29' E 139°41'0 0.0
2018-Feb-13 15:00N 35°29' E 139°41'0 0.0
2018-Feb-13 14:30N 35°29' E 139°41'0 0.0
2018-Feb-13 14:00N 35°29' E 139°41'  

Dump ship's entire track history